Time;durP1;ratioP1;P1;durP2;ratioP2;P2;SDS_P1;SDS_P2;PMS_P1;PMS_P2;Temp;Humidity;BMP_temperature;BMP_pressure;BME280_temperature;BME280_humidity;BME280_pressure;Samples;Min_cycle;Max_cycle;Signal;HPM_P1;HPM_P2
2022/02/15 00:01:37;;;;;;;4.80;1.48;;;7.20;99.90;;;;;;6077845;23;20092;-89
2022/02/15 00:04:08;;;;;;;2.03;0.50;;;7.10;99.90;;;;;;6075390;23;20014;-89
2022/02/15 00:06:44;;;;;;;5.03;1.63;;;7.20;99.90;;;;;;6062877;23;20006;-89
2022/02/15 00:09:09;;;;;;;5.20;1.20;;;7.20;99.90;;;;;;6065840;23;20022;-88
2022/02/15 00:11:35;;;;;;;9.93;1.30;;;7.10;99.90;;;;;;6074914;23;20366;-91
2022/02/15 00:14:01;;;;;;;6.20;2.15;;;7.10;99.90;;;;;;6043579;23;20479;-89
2022/02/15 00:16:28;;;;;;;8.48;1.80;;;7.20;99.90;;;;;;6078499;23;20093;-90
2022/02/15 00:18:54;;;;;;;6.00;1.95;;;7.10;99.90;;;;;;6086858;23;20009;-89
2022/02/15 00:21:25;;;;;;;6.70;1.48;;;7.10;99.90;;;;;;6062773;23;20021;-89
2022/02/15 00:23:51;;;;;;;4.03;0.90;;;7.20;99.90;;;;;;6079351;23;20009;-88
2022/02/15 00:26:19;;;;;;;5.18;1.20;;;7.10;99.90;;;;;;6047290;23;20465;-88
2022/02/15 00:28:45;;;;;;;7.72;1.50;;;7.10;99.90;;;;;;6087339;23;20036;-89
2022/02/15 00:31:14;;;;;;;7.90;1.65;;;7.10;99.90;;;;;;6032266;23;20014;-89
2022/02/15 00:33:39;;;;;;;3.55;1.13;;;7.00;99.90;;;;;;6037061;23;20029;-88
2022/02/15 00:36:07;;;;;;;5.82;1.10;;;7.00;99.90;;;;;;6057132;23;20021;-89
2022/02/15 00:38:33;;;;;;;4.28;1.52;;;7.00;99.90;;;;;;6082945;23;20022;-89
2022/02/15 00:41:07;;;;;;;8.25;2.08;;;7.00;99.90;;;;;;6089652;23;20014;-90
2022/02/15 00:44:00;;;;;;;3.58;0.98;;;6.90;99.90;;;;;;6089067;23;20065;-88
2022/02/15 00:46:28;;;;;;;5.43;1.42;;;7.00;99.90;;;;;;6097951;23;20446;-87
2022/02/15 00:48:53;;;;;;;7.50;1.35;;;7.00;99.90;;;;;;6076678;23;20025;-89
2022/02/15 00:51:19;;;;;;;4.68;0.85;;;7.00;99.90;;;;;;6074629;23;20017;-89
2022/02/15 00:53:50;;;;;;;4.32;1.55;;;6.80;99.90;;;;;;6065992;23;20013;-90
2022/02/15 00:56:16;;;;;;;7.70;1.65;;;6.70;99.90;;;;;;6049606;23;20019;-88
2022/02/15 00:58:46;;;;;;;10.20;1.40;;;6.80;99.90;;;;;;6054427;23;20017;-89
2022/02/15 01:01:14;;;;;;;5.47;1.45;;;6.80;99.90;;;;;;6063772;23;20025;-88
2022/02/15 01:03:46;;;;;;;2.03;1.27;;;6.70;99.90;;;;;;6059595;23;20319;-89
2022/02/15 01:06:14;;;;;;;1.30;0.80;;;6.70;99.90;;;;;;6043803;23;20565;-88
2022/02/15 01:08:42;;;;;;;7.50;2.08;;;6.70;99.90;;;;;;6066422;23;20016;-89
2022/02/15 01:11:11;;;;;;;3.03;0.90;;;6.70;99.90;;;;;;6076952;23;20022;-89
2022/02/15 01:13:38;;;;;;;8.63;1.55;;;6.70;99.90;;;;;;6033368;23;20164;-88
2022/02/15 01:16:14;;;;;;;3.83;1.60;;;7.00;99.90;;;;;;6061648;23;20024;-89
2022/02/15 01:18:42;;;;;;;4.93;1.33;;;6.80;99.90;;;;;;6074210;23;20506;-89
2022/02/15 01:21:10;;;;;;;2.60;1.02;;;6.90;99.90;;;;;;6085763;23;20088;-87
2022/02/15 01:23:36;;;;;;;8.25;1.10;;;6.80;99.90;;;;;;6050834;23;20035;-89
2022/02/15 01:26:05;;;;;;;7.97;2.00;;;6.90;99.90;;;;;;6049114;23;20013;-90
2022/02/15 01:28:34;;;;;;;7.18;1.90;;;6.90;99.90;;;;;;6074383;23;20010;-89
2022/02/15 01:31:01;;;;;;;3.53;0.98;;;6.90;99.90;;;;;;6088232;23;20081;-89
2022/02/15 01:33:26;;;;;;;4.65;1.75;;;7.00;99.90;;;;;;6098542;23;20006;-88
2022/02/15 01:36:03;;;;;;;2.50;1.38;;;6.90;99.90;;;;;;6062796;23;20103;-88
2022/02/15 01:38:29;;;;;;;7.38;1.65;;;7.00;99.90;;;;;;6065124;23;20031;-89
2022/02/15 01:40:54;;;;;;;6.32;1.27;;;7.00;99.90;;;;;;6062535;23;20084;-89
2022/02/15 01:43:20;;;;;;;4.43;1.85;;;7.00;99.90;;;;;;6060806;23;20018;-88
2022/02/15 01:45:54;;;;;;;5.05;1.52;;;7.00;99.90;;;;;;6062431;23;20041;-88
2022/02/15 01:48:22;;;;;;;8.80;1.73;;;7.00;99.90;;;;;;6047892;23;20085;-88
2022/02/15 01:50:58;;;;;;;6.20;2.00;;;6.90;99.90;;;;;;6074131;23;20009;-88
2022/02/15 01:53:32;;;;;;;6.00;1.85;;;7.00;99.90;;;;;;6047265;23;20013;-88
2022/02/15 01:55:58;;;;;;;5.85;2.00;;;6.90;99.90;;;;;;6076190;23;20021;-89
2022/02/15 01:58:29;;;;;;;6.43;2.08;;;6.90;99.90;;;;;;6023298;23;20017;-89
2022/02/15 02:00:57;;;;;;;6.20;2.28;;;6.90;99.90;;;;;;6047797;23;20492;-88
2022/02/15 02:03:28;;;;;;;1.75;0.75;;;7.00;99.90;;;;;;6059299;23;20007;-90
2022/02/15 02:05:58;;;;;;;5.25;2.30;;;6.80;99.90;;;;;;6084851;23;20014;-89
2022/02/15 02:08:27;;;;;;;14.50;2.60;;;6.90;99.90;;;;;;6063380;23;20014;-90
2022/02/15 02:10:54;;;;;;;7.65;2.70;;;6.90;99.90;;;;;;6055118;23;20019;-89
2022/02/15 02:13:30;;;;;;;5.43;1.63;;;6.90;99.90;;;;;;6043779;23;20013;-88
2022/02/15 02:15:56;;;;;;;3.00;1.27;;;6.90;99.90;;;;;;6075778;23;20018;-88
2022/02/15 02:18:23;;;;;;;15.60;3.10;;;6.90;99.90;;;;;;6075900;23;20479;-88
2022/02/15 02:21:11;;;;;;;7.10;2.88;;;6.90;99.90;;;;;;6089243;23;20006;-89
2022/02/15 02:23:40;;;;;;;6.15;2.40;;;6.80;99.90;;;;;;6105735;23;20010;-88
2022/02/15 02:26:13;;;;;;;2.63;1.33;;;6.90;99.90;;;;;;6098032;23;20116;-88
2022/02/15 02:28:42;;;;;;;5.32;2.22;;;6.80;99.90;;;;;;6063076;23;20029;-88
2022/02/15 02:31:08;;;;;;;6.25;2.35;;;6.90;99.90;;;;;;6057763;23;20053;-88
2022/02/15 02:33:37;;;;;;;6.90;2.55;;;6.90;99.90;;;;;;6063906;23;20009;-88
2022/02/15 02:36:08;;;;;;;8.00;3.25;;;6.90;99.90;;;;;;6075002;23;20096;-88
2022/02/15 02:38:45;;;;;;;6.75;2.92;;;6.80;99.90;;;;;;6059095;23;20025;-89
2022/02/15 02:41:12;;;;;;;7.32;1.55;;;6.80;99.90;;;;;;6062947;23;20316;-88
2022/02/15 02:43:37;;;;;;;10.73;2.50;;;6.80;99.90;;;;;;6075079;23;20017;-88
2022/02/15 02:46:05;;;;;;;7.28;2.67;;;6.80;99.90;;;;;;6062568;23;20032;-89
2022/02/15 02:48:36;;;;;;;8.68;2.42;;;6.80;99.90;;;;;;6040560;23;20014;-90
2022/02/15 02:51:06;;;;;;;4.72;1.70;;;6.90;99.90;;;;;;6016371;23;20018;-88
2022/02/15 02:53:34;;;;;;;12.20;3.45;;;6.90;99.90;;;;;;6073603;23;20010;-88
2022/02/15 02:56:09;;;;;;;4.50;2.47;;;6.80;99.90;;;;;;6084084;23;20021;-89
2022/02/15 02:58:35;;;;;;;5.93;2.13;;;6.80;99.90;;;;;;6061337;23;20013;-89
2022/02/15 03:01:05;;;;;;;0.73;0.47;;;6.80;99.90;;;;;;6060374;23;20509;-88
2022/02/15 03:03:31;;;;;;;11.23;3.92;;;6.90;99.90;;;;;;6071173;23;20435;-88
2022/02/15 03:06:05;;;;;;;4.78;2.55;;;6.80;99.90;;;;;;6030621;23;20017;-89
2022/02/15 03:08:30;;;;;;;9.73;3.83;;;6.80;99.90;;;;;;6064410;23;20009;-88
2022/02/15 03:10:59;;;;;;;14.90;3.63;;;6.90;99.90;;;;;;6048594;23;20007;-89
2022/02/15 03:13:28;;;;;;;15.38;4.80;;;6.90;99.90;;;;;;6085355;23;20453;-88
2022/02/15 03:16:01;;;;;;;9.57;3.60;;;7.00;99.90;;;;;;6046431;23;20037;-88
2022/02/15 03:18:30;;;;;;;11.10;2.85;;;6.90;99.90;;;;;;6070961;23;20041;-87
2022/02/15 03:20:58;;;;;;;4.90;2.63;;;6.90;99.90;;;;;;6025434;23;20008;-89
2022/02/15 03:23:29;;;;;;;10.75;4.97;;;6.90;99.90;;;;;;6098793;23;20017;-90
2022/02/15 03:28:46;;;;;;;7.60;3.13;;;6.90;99.90;;;;;;6095322;23;20013;-88
2022/02/15 03:31:20;;;;;;;11.77;3.88;;;6.90;99.90;;;;;;6031291;23;20036;-89
2022/02/15 03:33:46;;;;;;;10.90;4.07;;;6.80;99.90;;;;;;6061682;23;20079;-89
2022/02/15 03:36:12;;;;;;;5.28;3.08;;;6.90;99.90;;;;;;6078309;23;20057;-89
2022/02/15 03:38:38;;;;;;;7.07;4.40;;;6.80;99.90;;;;;;6098126;23;20017;-88
2022/02/15 03:43:56;;;;;;;16.13;7.60;;;6.80;99.90;;;;;;6042016;23;20490;-89
2022/02/15 03:46:25;;;;;;;12.43;5.53;;;6.80;99.90;;;;;;6081433;23;20021;-88
2022/02/15 03:48:54;;;;;;;12.07;6.55;;;6.90;99.90;;;;;;6069349;23;20010;-88
2022/02/15 03:51:22;;;;;;;11.38;4.45;;;6.90;99.90;;;;;;6073441;23;20014;-90
2022/02/15 03:53:51;;;;;;;10.45;4.35;;;6.80;99.90;;;;;;6036036;23;20014;-88
2022/02/15 03:56:17;;;;;;;13.38;6.15;;;6.80;99.90;;;;;;6050810;23;20018;-87
2022/02/15 03:58:48;;;;;;;9.50;5.60;;;6.80;99.90;;;;;;6101847;23;20013;-88
2022/02/15 04:01:20;;;;;;;13.40;6.90;;;6.80;99.90;;;;;;6059843;23;20072;-89
2022/02/15 04:03:54;;;;;;;12.85;7.07;;;6.80;99.90;;;;;;6067122;23;20034;-88
2022/02/15 04:06:20;;;;;;;10.30;6.20;;;6.80;99.90;;;;;;6081812;23;20023;-89
2022/02/15 04:08:45;;;;;;;16.67;7.95;;;6.70;99.90;;;;;;6061179;23;20063;-89
2022/02/15 04:11:12;;;;;;;7.68;3.80;;;6.70;99.90;;;;;;6057699;23;20018;-88
2022/02/15 04:13:41;;;;;;;12.52;5.47;;;6.70;99.90;;;;;;6061198;23;20056;-89
2022/02/15 04:16:13;;;;;;;11.90;6.88;;;6.70;99.90;;;;;;6072422;23;20051;-88
2022/02/15 04:18:49;;;;;;;11.18;6.35;;;6.70;99.90;;;;;;6048143;23;20009;-89
2022/02/15 04:21:26;;;;;;;;;;;;;;;;;;;;;
2022/02/15 04:23:57;;;;;;;9.68;6.35;;;6.70;99.90;;;;;;6075600;23;20096;-88
2022/02/15 04:26:22;;;;;;;14.13;6.35;;;6.60;99.90;;;;;;6028447;23;20483;-88
2022/02/15 04:29:14;;;;;;;15.60;7.38;;;6.60;99.90;;;;;;6045233;23;20017;-88
2022/02/15 04:31:48;;;;;;;16.13;6.75;;;6.60;99.90;;;;;;6038672;23;20016;-88
2022/02/15 04:34:21;;;;;;;13.00;8.43;;;6.60;99.90;;;;;;6060670;23;20037;-88
2022/02/15 04:36:55;;;;;;;15.88;7.40;;;6.70;99.90;;;;;;6094818;23;20040;-88
2022/02/15 04:39:24;;;;;;;12.98;7.22;;;6.70;99.90;;;;;;6065101;23;20017;-89
2022/02/15 04:42:02;;;;;;;16.40;6.78;;;6.60;99.90;;;;;;6083728;23;20020;-88
2022/02/15 04:44:30;;;;;;;16.90;7.80;;;6.60;99.90;;;;;;6038675;23;20063;-89
2022/02/15 04:47:11;;;;;;;9.75;5.43;;;6.60;99.90;;;;;;6076198;23;20100;-89
2022/02/15 04:49:42;;;;;;;14.60;5.38;;;6.60;99.90;;;;;;6074072;23;20005;-89
2022/02/15 04:52:13;;;;;;;8.65;4.63;;;6.50;99.90;;;;;;6054495;23;20455;-89
2022/02/15 04:54:42;;;;;;;12.43;6.13;;;6.50;99.90;;;;;;6021412;23;20010;-88
2022/02/15 04:57:08;;;;;;;10.32;6.35;;;6.50;99.90;;;;;;6075237;23;20050;-89
2022/02/15 04:59:36;;;;;;;17.90;7.35;;;6.40;99.90;;;;;;6059218;23;20009;-88
2022/02/15 05:02:17;;;;;;;9.52;5.18;;;6.60;99.90;;;;;;6062577;23;20016;-89
2022/02/15 05:04:48;;;;;;;12.20;6.05;;;6.50;99.90;;;;;;6044574;23;20017;-89
2022/02/15 05:07:28;;;;;;;15.25;8.07;;;6.50;99.90;;;;;;6074156;23;20032;-89
2022/02/15 05:10:00;;;;;;;12.23;5.13;;;6.50;99.90;;;;;;6061749;23;20338;-89
2022/02/15 05:12:32;;;;;;;17.90;8.48;;;6.50;99.90;;;;;;6043385;23;20013;-89
2022/02/15 05:15:09;;;;;;;14.23;7.60;;;6.40;99.90;;;;;;6066653;23;20478;-89
2022/02/15 05:17:43;;;;;;;19.35;8.80;;;6.50;99.90;;;;;;6048873;23;20007;-90
2022/02/15 05:20:16;;;;;;;16.25;7.88;;;6.50;99.90;;;;;;6014532;23;20085;-88
2022/02/15 05:22:45;;;;;;;13.32;6.43;;;6.40;99.90;;;;;;6090805;23;20032;-89
2022/02/15 05:25:15;;;;;;;5.47;3.00;;;6.40;99.90;;;;;;6050239;23;20009;-88
2022/02/15 05:27:46;;;;;;;10.02;4.10;;;6.40;99.90;;;;;;6054897;23;20029;-88
2022/02/15 05:30:12;;;;;;;12.48;6.68;;;6.40;99.90;;;;;;6051050;23;20009;-88
2022/02/15 05:32:46;;;;;;;19.35;8.38;;;6.40;99.90;;;;;;6081975;23;20010;-90
2022/02/15 05:35:14;;;;;;;16.30;8.25;;;6.40;99.90;;;;;;6079337;23;20013;-90
2022/02/15 05:37:43;;;;;;;14.85;6.32;;;6.40;99.90;;;;;;6042807;23;20060;-89
2022/02/15 05:40:11;;;;;;;13.00;8.23;;;6.40;99.90;;;;;;6125315;23;20005;-89
2022/02/15 05:42:41;;;;;;;14.95;7.07;;;6.40;99.90;;;;;;6076688;23;20029;-89
2022/02/15 05:45:13;;;;;;;15.27;8.82;;;6.40;99.90;;;;;;6074268;23;20002;-89
2022/02/15 05:47:39;;;;;;;20.35;8.38;;;6.50;99.90;;;;;;6064233;23;20028;-89
2022/02/15 05:53:00;;;;;;;8.75;5.18;;;6.40;99.90;;;;;;6110905;23;20050;-89
2022/02/15 05:55:26;;;;;;;;;;;6.40;99.90;;;;;;6063005;23;20082;-90
2022/02/15 05:58:00;;;;;;;12.65;6.70;;;6.40;99.90;;;;;;6053019;23;19905;-89
2022/02/15 06:00:36;;;;;;;;;;;;;;;;;;;;;
2022/02/15 06:06:07;;;;;;;;;;;;;;;;;;;;;
2022/02/15 06:08:51;;;;;;;14.57;6.60;;;6.40;99.90;;;;;;6089719;23;20081;-89
2022/02/15 06:11:19;;;;;;;16.67;9.43;;;6.30;99.90;;;;;;6060283;23;20029;-89
2022/02/15 06:13:45;;;;;;;12.85;6.47;;;6.30;99.90;;;;;;6056344;23;20033;-89
2022/02/15 06:16:10;;;;;;;17.05;8.02;;;6.20;99.90;;;;;;6100784;23;20013;-89
2022/02/15 06:18:36;;;;;;;8.13;5.22;;;6.30;99.90;;;;;;6070006;23;20007;-90
2022/02/15 06:21:13;;;;;;;13.02;7.93;;;6.30;99.90;;;;;;6075777;23;20018;-89
2022/02/15 06:24:08;;;;;;;9.98;5.22;;;6.20;99.90;;;;;;6014739;23;20013;-90
2022/02/15 06:26:34;;;;;;;15.45;7.95;;;6.20;99.90;;;;;;6122575;23;20029;-89
2022/02/15 06:29:02;;;;;;;15.10;7.13;;;6.20;99.90;;;;;;6073093;23;20017;-89
2022/02/15 06:31:27;;;;;;;18.08;8.70;;;6.20;99.90;;;;;;6078778;23;20469;-89
2022/02/15 06:34:05;;;;;;;12.82;6.00;;;6.20;99.90;;;;;;6058115;23;20010;-90
2022/02/15 06:36:50;;;;;;;11.25;6.32;;;6.20;99.90;;;;;;6052641;23;20060;-91
2022/02/15 06:42:40;;;;;;;;;;;;;;;;;;;;;
2022/02/15 06:45:20;;;;;;;14.52;7.32;;;6.40;99.90;;;;;;6100520;23;20092;-89
2022/02/15 06:47:46;;;;;;;11.13;6.82;;;6.20;99.90;;;;;;6055250;23;20096;-89
2022/02/15 06:50:12;;;;;;;12.35;6.90;;;6.30;99.90;;;;;;6057084;23;20624;-89
2022/02/15 06:52:46;;;;;;;8.60;4.78;;;6.30;99.90;;;;;;6081735;23;20006;-90
2022/02/15 06:55:30;;;;;;;14.77;6.78;;;6.20;99.90;;;;;;6094210;23;20323;-89
2022/02/15 06:58:03;;;;;;;10.52;5.75;;;6.30;99.90;;;;;;6044737;23;20006;-89
2022/02/15 07:00:29;;;;;;;10.95;6.95;;;6.30;99.90;;;;;;6083404;23;20009;-88
2022/02/15 07:02:55;;;;;;;11.07;6.28;;;6.30;99.90;;;;;;6070829;23;20011;-88
2022/02/15 07:05:23;;;;;;;13.18;6.03;;;6.30;99.90;;;;;;6058601;23;20370;-89
2022/02/15 07:07:54;;;;;;;9.48;4.05;;;6.30;99.90;;;;;;6052872;23;20092;-89
2022/02/15 07:10:20;;;;;;;12.10;5.80;;;6.30;99.90;;;;;;6069506;23;20487;-89
2022/02/15 07:12:49;;;;;;;15.13;6.78;;;6.40;99.90;;;;;;6058348;23;20017;-89
2022/02/15 07:15:20;;;;;;;7.35;3.90;;;6.30;99.90;;;;;;6053891;23;20116;-89
2022/02/15 07:17:51;;;;;;;8.25;4.38;;;6.20;99.90;;;;;;6059255;23;20025;-89
2022/02/15 07:20:29;;;;;;;11.52;6.50;;;6.30;99.90;;;;;;6039510;23;20026;-88
2022/02/15 07:22:57;;;;;;;6.55;3.67;;;6.30;99.90;;;;;;6061627;23;20036;-89
2022/02/15 07:25:29;;;;;;;13.40;5.20;;;6.30;99.90;;;;;;6047556;23;20018;-90
2022/02/15 07:28:01;;;;;;;9.85;5.72;;;6.30;99.90;;;;;;6026016;23;20006;-90
2022/02/15 07:30:27;;;;;;;15.63;7.05;;;6.20;99.90;;;;;;6012493;23;20034;-90
2022/02/15 07:32:59;;;;;;;10.27;5.97;;;6.40;99.90;;;;;;6100560;23;20148;-89
2022/02/15 07:35:48;;;;;;;13.35;7.22;;;6.40;99.90;;;;;;6068391;23;20032;-89
2022/02/15 07:38:14;;;;;;;9.85;6.30;;;6.40;99.90;;;;;;6097026;23;20006;-89
2022/02/15 07:40:41;;;;;;;16.88;8.30;;;6.40;99.90;;;;;;6046737;23;20024;-90
2022/02/15 07:43:07;;;;;;;15.63;7.75;;;6.40;99.90;;;;;;6092664;23;20423;-89
2022/02/15 07:48:19;;;;;;;15.75;8.40;;;6.40;99.90;;;;;;5073681;27;1233515;-86
2022/02/15 07:50:45;;;;;;;12.48;6.70;;;6.40;99.90;;;;;;5083470;28;20779;-85
2022/02/15 07:53:11;;;;;;;5.32;2.88;;;6.50;99.90;;;;;;5074473;28;20034;-86
2022/02/15 07:55:36;;;;;;;14.43;7.65;;;6.40;99.90;;;;;;5074458;28;20480;-86
2022/02/15 07:58:02;;;;;;;10.98;4.30;;;6.40;99.90;;;;;;5094262;28;20028;-86
2022/02/15 08:00:28;;;;;;;11.93;6.95;;;6.50;99.90;;;;;;5079018;28;20070;-86
2022/02/15 08:02:53;;;;;;;18.55;8.88;;;6.50;99.90;;;;;;5076079;28;20496;-86
2022/02/15 08:05:20;;;;;;;14.43;8.38;;;6.50;99.90;;;;;;5062121;28;20036;-86
2022/02/15 08:07:50;;;;;;;11.88;6.10;;;6.50;99.90;;;;;;5079435;28;20028;-86
2022/02/15 08:10:19;;;;;;;14.48;7.93;;;6.50;99.90;;;;;;5070762;28;20441;-86
